Time;durP1;ratioP1;P1;durP2;ratioP2;P2;SDS_P1;SDS_P2;PMS_P1;PMS_P2;Temp;Humidity;BMP_temperature;BMP_pressure;BME280_temperature;BME280_humidity;BME280_pressure;Samples;Min_cycle;Max_cycle;Signal;HPM_P1;HPM_P2
2022/03/29 00:01:00;;;;;;;16.95;9.45;;;;;;;8.47;nan;101356.06;5005843;28;20030;-49
2022/03/29 00:03:26;;;;;;;17.60;8.73;;;;;;;8.42;nan;101345.19;5002896;28;20299;-49
2022/03/29 00:05:52;;;;;;;16.42;9.00;;;;;;;8.43;nan;101350.31;5007403;28;20432;-49
2022/03/29 00:08:18;;;;;;;16.98;8.73;;;;;;;8.46;nan;101343.75;5003396;28;20026;-49
2022/03/29 00:10:45;;;;;;;16.70;8.48;;;;;;;8.48;nan;101339.81;5001770;28;20372;-47
2022/03/29 00:13:11;;;;;;;18.27;9.77;;;;;;;8.50;nan;101336.09;5005015;28;20037;-48
2022/03/29 00:15:36;;;;;;;16.63;8.80;;;;;;;8.49;nan;101335.28;5003143;28;20037;-49
2022/03/29 00:18:02;;;;;;;14.25;8.75;;;;;;;8.52;nan;101336.72;5003505;28;20026;-49
2022/03/29 00:20:28;;;;;;;14.55;9.00;;;;;;;8.53;nan;101328.47;5006857;28;20506;-48
2022/03/29 00:22:54;;;;;;;16.30;8.88;;;;;;;8.57;nan;101328.84;5002179;28;20072;-47
2022/03/29 00:25:19;;;;;;;16.42;9.45;;;;;;;8.53;nan;101317.78;5002577;28;20061;-50
2022/03/29 00:27:45;;;;;;;13.85;8.05;;;;;;;8.51;nan;101329.72;5003410;28;20025;-45
2022/03/29 00:30:12;;;;;;;15.75;9.13;;;;;;;8.53;nan;101322.31;5005832;28;20456;-46
2022/03/29 00:32:42;;;;;;;14.18;8.45;;;;;;;8.53;nan;101320.47;5003412;28;20931;-49
2022/03/29 00:35:11;;;;;;;14.98;8.50;;;;;;;8.55;nan;101312.22;5003244;28;20376;-46
2022/03/29 00:37:38;;;;;;;18.02;9.27;;;;;;;8.56;nan;101312.00;5005691;28;20466;-46
2022/03/29 00:40:05;;;;;;;16.30;9.63;;;;;;;8.54;nan;101314.06;5005642;28;20053;-48
2022/03/29 00:42:31;;;;;;;16.15;9.35;;;;;;;8.52;nan;101305.47;5005365;28;20030;-46
2022/03/29 00:44:57;;;;;;;17.60;10.07;;;;;;;8.50;nan;101296.06;5007068;28;20394;-49
2022/03/29 00:47:23;;;;;;;17.05;9.55;;;;;;;8.50;nan;101296.88;5007767;28;20108;-49
2022/03/29 00:49:48;;;;;;;18.77;10.20;;;;;;;8.50;nan;101299.53;5006797;28;20104;-47
2022/03/29 00:52:17;;;;;;;16.23;9.88;;;;;;;8.47;nan;101303.47;5002708;28;20084;-50
2022/03/29 00:54:42;;;;;;;20.33;10.10;;;;;;;8.46;nan;101291.16;5001483;28;20026;-51
2022/03/29 00:57:11;;;;;;;21.65;10.98;;;;;;;8.41;nan;101282.16;4999785;28;20348;-46
2022/03/29 00:59:38;;;;;;;18.65;11.20;;;;;;;8.41;nan;101282.97;5003310;28;20064;-48
2022/03/29 01:02:05;;;;;;;22.98;11.50;;;;;;;8.43;nan;101280.06;5006856;28;20490;-50
2022/03/29 01:04:31;;;;;;;19.23;10.65;;;;;;;8.43;nan;101282.75;5002067;28;20030;-52
2022/03/29 01:06:58;;;;;;;25.85;12.05;;;;;;;8.43;nan;101274.72;5005137;28;20033;-48
2022/03/29 01:09:28;;;;;;;22.98;10.80;;;;;;;8.39;nan;101268.22;5003683;28;20060;-51
2022/03/29 01:11:54;;;;;;;19.85;10.93;;;;;;;8.38;nan;101278.06;5006612;28;20053;-47
2022/03/29 01:14:21;;;;;;;23.27;12.05;;;;;;;8.33;nan;101277.09;5005259;28;20068;-47
2022/03/29 01:19:31;;;;;;;23.95;11.73;;;;;;;8.32;nan;101267.44;5002234;28;20048;-50
2022/03/29 01:22:09;;;;;;;22.20;12.60;;;;;;;8.34;nan;101260.06;5001919;28;20148;-47
2022/03/29 01:24:41;;;;;;;26.23;12.95;;;;;;;8.30;nan;101261.50;5005782;28;20640;-46
2022/03/29 01:27:08;;;;;;;22.90;11.77;;;;;;;8.30;nan;101261.50;5007365;28;20228;-46
2022/03/29 01:29:36;;;;;;;23.83;13.18;;;;;;;8.31;nan;101265.81;5005326;28;20072;-47
2022/03/29 01:32:03;;;;;;;25.80;12.27;;;;;;;8.33;nan;101258.38;5009716;28;20034;-47
2022/03/29 01:34:30;;;;;;;21.70;11.93;;;;;;;8.35;nan;101269.69;5001013;28;20065;-49
2022/03/29 01:36:56;;;;;;;21.77;12.60;;;;;;;8.38;nan;101271.91;5006500;28;20033;-47
2022/03/29 01:39:21;;;;;;;24.13;12.63;;;;;;;8.38;nan;101277.25;5006279;28;20022;-51
2022/03/29 01:41:47;;;;;;;25.52;12.48;;;;;;;8.36;nan;101279.34;5006070;28;20395;-49
2022/03/29 01:44:13;;;;;;;23.10;12.15;;;;;;;8.35;nan;101272.38;5008108;28;20018;-51
2022/03/29 01:46:39;;;;;;;25.08;11.68;;;;;;;8.33;nan;101269.06;5002481;28;20052;-49
2022/03/29 01:49:05;;;;;;;22.70;12.18;;;;;;;8.32;nan;101272.78;5005479;28;20032;-46
2022/03/29 01:51:31;;;;;;;21.02;11.63;;;;;;;8.32;nan;101262.09;5002114;28;20116;-46
2022/03/29 01:54:04;;;;;;;25.33;12.60;;;;;;;8.31;nan;101263.94;5005368;28;20030;-48
2022/03/29 01:56:32;;;;;;;19.90;12.18;;;;;;;8.32;nan;101270.09;5003768;28;20034;-47
2022/03/29 01:58:58;;;;;;;22.00;13.35;;;;;;;8.32;nan;101260.25;5006897;28;20022;-49
2022/03/29 02:01:24;;;;;;;24.70;12.65;;;;;;;8.32;nan;101257.56;5006453;28;20099;-48
2022/03/29 02:03:50;;;;;;;21.92;12.55;;;;;;;8.30;nan;101256.16;5005950;28;20093;-51
2022/03/29 02:06:15;;;;;;;21.77;11.48;;;;;;;8.32;nan;101260.25;5004802;28;20535;-51
2022/03/29 02:08:41;;;;;;;23.27;12.20;;;;;;;8.33;nan;101261.88;5006074;28;20112;-50
2022/03/29 02:11:08;;;;;;;22.42;12.10;;;;;;;8.35;nan;101261.69;5002575;28;20022;-50
2022/03/29 02:13:34;;;;;;;24.92;12.52;;;;;;;8.28;nan;101248.38;5003657;28;20053;-48
2022/03/29 02:15:59;;;;;;;21.25;12.70;;;;;;;8.27;nan;101257.44;5000968;28;20203;-46
2022/03/29 02:18:25;;;;;;;27.55;12.52;;;;;;;8.26;nan;101249.59;5004337;28;20045;-48
2022/03/29 02:20:52;;;;;;;28.48;13.48;;;;;;;8.19;nan;101258.50;5004693;28;20392;-49
2022/03/29 02:23:18;;;;;;;24.90;11.85;;;;;;;8.14;nan;101269.03;5005306;28;20117;-48
2022/03/29 02:25:47;;;;;;;22.15;12.02;;;;;;;8.05;nan;101256.16;5008407;28;20106;-49
2022/03/29 02:28:13;;;;;;;25.45;12.98;;;;;;;8.02;nan;101262.78;5004784;28;20045;-46
2022/03/29 02:30:39;;;;;;;23.38;11.35;;;;;;;8.03;nan;101261.72;5004578;28;20045;-47
2022/03/29 02:33:06;;;;;;;23.23;11.98;;;;;;;8.03;nan;101266.25;5003856;28;20042;-49
2022/03/29 02:35:32;;;;;;;22.02;11.52;;;;;;;8.04;nan;101263.38;5003270;28;20112;-48
2022/03/29 02:37:59;;;;;;;21.90;11.52;;;;;;;8.03;nan;101261.72;5005020;28;20148;-51
2022/03/29 02:40:24;;;;;;;20.33;11.05;;;;;;;8.05;nan;101256.16;5005023;28;20300;-48
2022/03/29 02:42:52;;;;;;;22.98;11.65;;;;;;;8.04;nan;101263.38;5005586;28;20527;-47
2022/03/29 02:45:20;;;;;;;21.70;11.77;;;;;;;8.05;nan;101262.31;5003245;28;20068;-49
2022/03/29 02:47:49;;;;;;;25.35;11.25;;;;;;;8.03;nan;101252.91;5007065;28;20030;-49
2022/03/29 02:50:16;;;;;;;27.85;11.27;;;;;;;8.02;nan;101252.09;5001648;28;20384;-47
2022/03/29 02:52:47;;;;;;;21.27;10.30;;;;;;;8.03;nan;101258.25;5003353;28;20045;-49
2022/03/29 02:55:14;;;;;;;19.00;11.00;;;;;;;8.00;nan;101256.84;5004538;28;20033;-48
2022/03/29 02:57:39;;;;;;;22.30;10.38;;;;;;;7.98;nan;101250.09;5003881;28;20108;-46
2022/03/29 03:00:06;;;;;;;20.35;10.45;;;;;;;7.98;nan;101247.41;5005954;28;20093;-50
2022/03/29 03:02:34;;;;;;;21.90;10.65;;;;;;;7.97;nan;101243.94;5003204;28;20113;-48
2022/03/29 03:05:00;;;;;;;20.23;10.23;;;;;;;7.96;nan;101242.31;5006430;28;20029;-49
2022/03/29 03:07:27;;;;;;;22.60;10.70;;;;;;;7.96;nan;101244.97;5004009;28;20029;-48
2022/03/29 03:09:53;;;;;;;19.98;9.93;;;;;;;7.98;nan;101240.22;5004628;28;20022;-49
2022/03/29 03:12:19;;;;;;;19.13;9.77;;;;;;;7.98;nan;101229.56;5003556;28;20065;-49
2022/03/29 03:14:45;;;;;;;20.73;10.05;;;;;;;7.99;nan;101225.03;5001951;28;20100;-48
2022/03/29 03:17:11;;;;;;;20.95;9.23;;;;;;;8.00;nan;101232.81;5003222;28;20100;-51
2022/03/29 03:19:36;;;;;;;20.88;10.57;;;;;;;7.97;nan;101233.25;5008305;28;20029;-50
2022/03/29 03:22:02;;;;;;;24.80;9.70;;;;;;;7.96;nan;101223.63;5007853;28;20498;-48
2022/03/29 03:24:28;;;;;;;25.08;10.35;;;;;;;7.94;nan;101217.69;5009752;28;20888;-47
2022/03/29 03:26:54;;;;;;;22.08;9.13;;;;;;;7.94;nan;101211.53;5007777;28;20041;-51
2022/03/29 03:29:19;;;;;;;19.65;10.15;;;;;;;7.91;nan;101214.66;5007987;28;20152;-47
2022/03/29 03:31:45;;;;;;;22.50;10.35;;;;;;;7.89;nan;101215.66;5009133;28;20492;-47
2022/03/29 03:34:10;;;;;;;23.60;9.73;;;;;;;7.93;nan;101217.91;5011335;28;20449;-46
2022/03/29 03:36:36;;;;;;;20.65;10.13;;;;;;;7.95;nan;101208.66;5005629;28;20034;-50
2022/03/29 03:39:02;;;;;;;18.40;9.07;;;;;;;7.97;nan;101211.91;5006659;28;20045;-47
2022/03/29 03:41:27;;;;;;;21.70;9.57;;;;;;;7.97;nan;101206.56;5005611;28;20034;-50
2022/03/29 03:43:54;;;;;;;20.55;9.32;;;;;;;7.97;nan;101201.25;5006514;28;20527;-49
2022/03/29 03:46:20;;;;;;;21.10;9.88;;;;;;;7.98;nan;101207.41;5004565;28;20041;-49
2022/03/29 03:48:46;;;;;;;20.92;9.15;;;;;;;7.98;nan;101204.72;5008486;28;20028;-49
2022/03/29 03:51:11;;;;;;;23.35;10.50;;;;;;;7.97;nan;101203.91;5007459;28;20033;-51
2022/03/29 03:53:37;;;;;;;18.73;9.00;;;;;;;8.01;nan;101204.28;5008921;28;20030;-49
2022/03/29 03:56:03;;;;;;;21.40;10.23;;;;;;;8.01;nan;101207.75;5005885;28;20484;-48
2022/03/29 03:58:28;;;;;;;20.65;10.55;;;;;;;8.01;nan;101207.75;5005776;28;20046;-47
2022/03/29 04:00:54;;;;;;;21.58;10.50;;;;;;;8.03;nan;101199.53;5004442;28;20025;-46
2022/03/29 04:03:20;;;;;;;22.88;10.05;;;;;;;8.01;nan;101202.44;5009740;28;21139;-48
2022/03/29 04:05:45;;;;;;;23.35;10.38;;;;;;;8.02;nan;101201.38;5012145;28;20121;-46
2022/03/29 04:08:10;;;;;;;26.77;9.95;;;;;;;7.99;nan;101204.50;5004565;28;20335;-50
2022/03/29 04:10:37;;;;;;;21.27;9.75;;;;;;;7.98;nan;101202.88;5001931;28;20052;-51
2022/03/29 04:13:04;;;;;;;20.27;9.77;;;;;;;7.98;nan;101202.06;5000857;28;20060;-49
2022/03/29 04:15:29;;;;;;;22.85;10.45;;;;;;;7.99;nan;101195.69;5002863;28;20239;-47
2022/03/29 04:17:56;;;;;;;16.38;9.98;;;;;;;8.01;nan;101190.94;5004458;28;20520;-48
2022/03/29 04:20:21;;;;;;;21.77;9.20;;;;;;;8.03;nan;101189.69;5001046;28;20025;-49
2022/03/29 04:22:47;;;;;;;21.52;11.02;;;;;;;8.04;nan;101187.81;5000725;28;20025;-51
2022/03/29 04:25:13;;;;;;;24.48;9.98;;;;;;;8.05;nan;101184.13;5000936;28;20871;-49
2022/03/29 04:27:38;;;;;;;21.15;9.48;;;;;;;8.06;nan;101178.56;5002115;28;20026;-48
2022/03/29 04:30:05;;;;;;;22.00;9.15;;;;;;;8.07;nan;101177.53;5003017;28;20029;-46
2022/03/29 04:32:30;;;;;;;20.45;9.77;;;;;;;8.07;nan;101177.53;5005623;28;20041;-46
2022/03/29 04:34:56;;;;;;;23.95;9.98;;;;;;;8.07;nan;101174.84;5006300;28;20037;-47
2022/03/29 04:37:24;;;;;;;21.60;11.55;;;;;;;8.06;nan;101170.56;5004437;28;20026;-50
2022/03/29 04:39:50;;;;;;;18.98;9.43;;;;;;;8.06;nan;101161.72;5003749;28;20057;-46
2022/03/29 04:42:18;;;;;;;21.98;11.30;;;;;;;8.06;nan;101157.22;5006208;28;20060;-49
2022/03/29 04:44:44;;;;;;;25.35;11.15;;;;;;;8.05;nan;101155.56;5008804;28;20061;-47
2022/03/29 04:47:10;;;;;;;24.35;10.55;;;;;;;8.05;nan;101152.91;5006901;28;20018;-48
2022/03/29 04:49:35;;;;;;;21.58;10.65;;;;;;;8.05;nan;101152.91;5006415;28;20033;-45
2022/03/29 04:52:01;;;;;;;23.08;11.68;;;;;;;8.04;nan;101159.28;5005009;28;20044;-51
2022/03/29 04:54:27;;;;;;;27.15;12.05;;;;;;;8.00;nan;101155.44;5005544;28;20504;-52
2022/03/29 04:56:53;;;;;;;26.02;11.63;;;;;;;7.94;nan;101155.50;5006249;28;20373;-51
2022/03/29 04:59:18;;;;;;;25.98;12.13;;;;;;;7.89;nan;101150.81;5008040;28;20111;-47
2022/03/29 05:01:44;;;;;;;26.15;12.10;;;;;;;7.84;nan;101159.47;5007064;28;20121;-49
2022/03/29 05:04:09;;;;;;;23.90;11.60;;;;;;;7.83;nan;101152.53;5003162;28;20488;-46
2022/03/29 05:06:35;;;;;;;22.50;12.35;;;;;;;7.83;nan;101146.38;5001208;28;20049;-47
2022/03/29 05:09:00;;;;;;;26.30;12.75;;;;;;;7.85;nan;101155.78;5003397;28;20026;-51
2022/03/29 05:11:26;;;;;;;26.23;12.48;;;;;;;7.90;nan;101160.47;5001823;28;20033;-52
2022/03/29 05:13:52;;;;;;;27.70;13.00;;;;;;;7.92;nan;101153.06;4999805;28;20040;-49
2022/03/29 05:16:17;;;;;;;30.38;13.65;;;;;;;7.95;nan;101165.16;5005681;28;20065;-48
2022/03/29 05:18:44;;;;;;;26.60;12.43;;;;;;;7.95;nan;101157.97;5004506;28;20110;-52
2022/03/29 05:21:10;;;;;;;29.95;14.10;;;;;;;7.94;nan;101158.19;5006227;28;20057;-48
2022/03/29 05:23:36;;;;;;;23.08;12.18;;;;;;;7.96;nan;101159.59;5006925;28;20094;-47
2022/03/29 05:26:01;;;;;;;28.25;12.98;;;;;;;7.96;nan;101162.25;5006630;28;20034;-51
2022/03/29 05:28:27;;;;;;;25.42;13.05;;;;;;;7.96;nan;101166.78;5005304;28;20076;-47
2022/03/29 05:30:52;;;;;;;29.30;13.60;;;;;;;7.96;nan;101164.91;5004765;28;20026;-50
2022/03/29 05:33:18;;;;;;;26.02;12.85;;;;;;;7.97;nan;101161.22;5000402;28;20033;-48
2022/03/29 05:35:44;;;;;;;25.98;12.90;;;;;;;7.98;nan;101165.50;5002384;28;20035;-48
2022/03/29 05:38:10;;;;;;;27.05;13.88;;;;;;;7.98;nan;101164.69;5007225;28;20034;-51
2022/03/29 05:40:36;;;;;;;27.60;11.95;;;;;;;7.99;nan;101161.00;5004159;28;20236;-47
2022/03/29 05:43:01;;;;;;;26.95;13.52;;;;;;;8.00;nan;101158.09;5004578;28;20110;-47
2022/03/29 05:45:29;;;;;;;29.52;13.70;;;;;;;8.02;nan;101155.22;5008434;28;20034;-50
2022/03/29 05:50:39;;;;;;;25.60;13.55;;;;;;;8.07;nan;101161.50;4999634;28;20476;-49
2022/03/29 05:53:05;;;;;;;26.13;12.60;;;;;;;8.09;nan;101162.13;5000956;28;20200;-49
2022/03/29 05:55:31;;;;;;;24.92;12.48;;;;;;;8.08;nan;101163.16;4993999;28;20094;-47
2022/03/29 05:57:56;;;;;;;22.98;12.07;;;;;;;8.06;nan;101161.72;5005727;28;20176;-51
2022/03/29 06:00:26;;;;;;;27.77;11.02;;;;;;;8.06;nan;101154.53;5007906;28;20028;-46
2022/03/29 06:02:55;;;;;;;23.20;11.70;;;;;;;8.04;nan;101155.81;5002318;28;20488;-52
2022/03/29 06:05:21;;;;;;;22.65;11.57;;;;;;;8.03;nan;101160.31;5002092;28;20108;-48
2022/03/29 06:07:47;;;;;;;26.02;11.13;;;;;;;8.02;nan;101161.38;5007147;28;20065;-48
2022/03/29 06:10:12;;;;;;;25.30;11.93;;;;;;;7.99;nan;101158.31;5000781;28;20072;-46
2022/03/29 06:12:38;;;;;;;26.38;11.57;;;;;;;7.96;nan;101164.91;4999340;28;20074;-48
2022/03/29 06:15:08;;;;;;;22.67;12.13;;;;;;;7.94;nan;101159.00;5006654;28;20036;-50
2022/03/29 06:17:35;;;;;;;27.05;12.40;;;;;;;7.95;nan;101160.63;5007629;28;20506;-50
2022/03/29 06:20:03;;;;;;;23.55;11.93;;;;;;;7.96;nan;101167.59;5002523;28;20053;-50
2022/03/29 06:22:31;;;;;;;24.40;10.93;;;;;;;7.93;nan;101160.03;5004106;28;20029;-48
2022/03/29 06:24:58;;;;;;;25.88;11.35;;;;;;;7.91;nan;101164.78;5007447;28;20517;-50
2022/03/29 06:27:24;;;;;;;30.92;11.73;;;;;;;7.91;nan;101164.78;5002021;28;20052;-46
2022/03/29 06:29:50;;;;;;;20.75;11.32;;;;;;;7.93;nan;101157.38;5007626;28;20079;-47
2022/03/29 06:32:15;;;;;;;25.75;12.23;;;;;;;7.96;nan;101164.91;5007915;28;20486;-48
2022/03/29 06:34:41;;;;;;;24.45;10.63;;;;;;;8.02;nan;101156.03;5000476;28;20034;-49
2022/03/29 06:37:08;;;;;;;26.65;10.77;;;;;;;8.02;nan;101160.56;5005762;28;20049;-47
2022/03/29 06:39:34;;;;;;;21.92;9.52;;;;;;;8.01;nan;101156.25;5004820;28;20025;-49
2022/03/29 06:42:00;;;;;;;22.48;10.50;;;;;;;8.01;nan;101157.06;4994426;28;20607;-47
2022/03/29 06:44:26;;;;;;;18.60;8.45;;;;;;;7.97;nan;101158.56;5006537;28;20036;-51
2022/03/29 06:46:52;;;;;;;20.05;8.45;;;;;;;7.96;nan;101156.09;5007732;28;20030;-48
2022/03/29 06:49:18;;;;;;;20.95;9.82;;;;;;;7.93;nan;101151.22;5005346;28;20030;-48
2022/03/29 06:51:45;;;;;;;23.92;9.35;;;;;;;7.89;nan;101148.16;5000799;28;20041;-46
2022/03/29 06:54:11;;;;;;;17.38;7.80;;;;;;;7.90;nan;101152.47;5002626;28;20025;-47
2022/03/29 06:56:36;;;;;;;20.65;7.55;;;;;;;7.86;nan;101160.06;5006000;28;20088;-50
2022/03/29 06:59:02;;;;;;;15.50;7.80;;;;;;;7.85;nan;101149.63;5000458;28;20022;-47
2022/03/29 07:01:28;;;;;;;23.90;8.10;;;;;;;7.85;nan;101152.28;5007197;28;20037;-46
2022/03/29 07:03:57;;;;;;;17.90;7.88;;;;;;;7.88;nan;101150.00;5002324;28;20037;-46
2022/03/29 07:06:23;;;;;;;15.50;7.53;;;;;;;7.92;nan;101150.41;5002805;28;20026;-52
2022/03/29 07:11:33;;;;;;;15.95;7.93;;;;;;;8.01;nan;101153.59;5000616;28;20029;-50
2022/03/29 07:13:59;;;;;;;14.38;7.35;;;;;;;7.97;nan;101147.06;5004179;28;20026;-46
2022/03/29 07:16:25;;;;;;;14.95;7.43;;;;;;;7.97;nan;101150.53;5004473;28;20530;-48
2022/03/29 07:18:54;;;;;;;17.35;8.43;;;;;;;7.97;nan;101153.22;5004417;28;20153;-47
2022/03/29 07:21:27;;;;;;;20.17;8.23;;;;;;;7.99;nan;101161.00;5003473;28;20022;-49
2022/03/29 07:23:52;;;;;;;17.38;8.60;;;;;;;7.98;nan;101154.84;4999623;28;20030;-48
2022/03/29 07:26:18;;;;;;;22.35;8.68;;;;;;;8.00;nan;101155.44;5003246;28;20061;-48
2022/03/29 07:28:43;;;;;;;18.55;8.20;;;;;;;8.04;nan;101153.94;5006396;28;20484;-47
2022/03/29 07:31:09;;;;;;;16.73;7.85;;;;;;;8.11;nan;101153.91;4997534;28;20097;-49
2022/03/29 07:33:35;;;;;;;18.83;8.23;;;;;;;8.17;nan;101153.81;5005913;28;20502;-49
2022/03/29 07:36:03;;;;;;;15.50;8.15;;;;;;;8.20;nan;101157.88;5002779;28;20017;-46
2022/03/29 07:38:29;;;;;;;18.08;8.52;;;;;;;8.19;nan;101156.25;5001288;28;20055;-46
2022/03/29 07:40:55;;;;;;;16.40;8.30;;;;;;;8.21;nan;101158.72;4999714;28;20464;-48
2022/03/29 07:43:22;;;;;;;19.00;8.45;;;;;;;8.26;nan;101153.50;4995183;28;20204;-48
2022/03/29 07:45:48;;;;;;;19.75;9.13;;;;;;;8.29;nan;101156.56;5004143;28;20088;-48
2022/03/29 07:48:13;;;;;;;17.15;9.15;;;;;;;8.28;nan;101154.13;4995699;28;20242;-48
2022/03/29 07:50:39;;;;;;;18.13;8.52;;;;;;;8.29;nan;101150.41;5004735;28;20075;-46
2022/03/29 07:53:05;;;;;;;16.67;7.78;;;;;;;8.33;nan;101154.28;5027445;22;21896;-49
2022/03/29 07:55:32;;;;;;;23.08;8.93;;;;;;;8.38;nan;101154.44;5041606;28;20033;-50
2022/03/29 07:57:57;;;;;;;21.88;8.88;;;;;;;8.38;nan;101149.09;5046258;28;20539;-48
2022/03/29 08:00:32;;;;;;;18.27;8.57;;;;;;;8.38;nan;101144.56;5044585;28;20024;-51
2022/03/29 08:02:59;;;;;;;17.63;7.55;;;;;;;8.46;nan;101136.28;5049739;28;20024;-48
2022/03/29 08:05:25;;;;;;;16.27;8.35;;;;;;;8.59;nan;101132.59;5046001;28;20033;-48
2022/03/29 08:07:51;;;;;;;20.50;8.10;;;;;;;8.71;nan;101130.81;5051598;28;20090;-51
2022/03/29 08:10:17;;;;;;;20.85;9.35;;;;;;;8.82;nan;101131.09;5049211;28;20041;-52
2022/03/29 08:12:43;;;;;;;17.40;7.65;;;;;;;8.86;nan;101130.41;5053577;28;20024;-50
2022/03/29 08:15:11;;;;;;;20.02;9.23;;;;;;;8.89;nan;101129.13;5046679;28;20029;-48
2022/03/29 08:17:37;;;;;;;19.17;8.70;;;;;;;8.84;nan;101137.00;5046076;28;20036;-51
2022/03/29 08:20:05;;;;;;;18.08;9.23;;;;;;;8.69;nan;101132.88;5051755;28;20017;-50
2022/03/29 08:22:32;;;;;;;20.58;9.73;;;;;;;8.60;nan;101136.91;5052440;28;20025;-52
2022/03/29 08:24:59;;;;;;;21.60;9.52;;;;;;;8.57;nan;101126.66;5050902;28;20546;-52
2022/03/29 08:27:25;;;;;;;18.60;8.18;;;;;;;8.66;nan;101129.84;5054143;28;20494;-51
2022/03/29 08:29:50;;;;;;;16.83;8.52;;;;;;;8.83;nan;101122.84;5047357;28;20212;-49
2022/03/29 08:32:16;;;;;;;21.17;9.95;;;;;;;9.02;nan;101123.59;5050065;28;20029;-49
2022/03/29 08:34:41;;;;;;;19.80;8.25;;;;;;;9.10;nan;101120.59;5050080;28;20020;-51
2022/03/29 08:37:07;;;;;;;19.98;8.90;;;;;;;9.13;nan;101121.97;5045718;28;20567;-52
2022/03/29 08:39:32;;;;;;;17.67;8.38;;;;;;;9.20;nan;101122.72;5050616;28;20528;-52
2022/03/29 08:42:10;;;;;;;18.40;8.32;;;;;;;9.27;nan;101121.53;5047415;28;20025;-48
2022/03/29 08:44:38;;;;;;;19.27;9.93;;;;;;;9.46;nan;101113.44;5053479;28;20052;-50
2022/03/29 08:47:09;;;;;;;19.83;9.85;;;;;;;9.61;nan;101109.25;5049320;28;20077;-47
2022/03/29 08:49:35;;;;;;;19.42;7.93;;;;;;;9.68;nan;101119.81;5051364;28;20021;-51
2022/03/29 08:52:01;;;;;;;17.90;8.35;;;;;;;9.77;nan;101120.31;5048314;28;20041;-49
2022/03/29 08:54:27;;;;;;;18.67;8.25;;;;;;;9.84;nan;101121.81;5049784;28;20052;-50
2022/03/29 08:56:53;;;;;;;21.00;8.15;;;;;;;9.94;nan;101121.22;5051204;28;20055;-52
2022/03/29 08:59:20;;;;;;;19.52;7.88;;;;;;;10.08;nan;101116.44;5051574;28;20152;-48
2022/03/29 09:01:46;;;;;;;17.40;8.07;;;;;;;10.10;nan;101125.06;5053152;28;20095;-52
2022/03/29 09:04:15;;;;;;;15.10;7.93;;;;;;;10.12;nan;101118.41;5052656;28;20171;-49
2022/03/29 09:06:56;;;;;;;20.42;8.30;;;;;;;10.10;nan;101114.34;5046236;28;20174;-48
2022/03/29 09:09:26;;;;;;;16.83;7.57;;;;;;;10.07;nan;101112.94;5046071;28;20116;-50
2022/03/29 09:11:53;;;;;;;20.48;9.13;;;;;;;10.10;nan;101115.16;5046866;28;20079;-51
2022/03/29 09:14:20;;;;;;;19.48;9.18;;;;;;;10.14;nan;101110.94;5041032;28;20053;-53
2022/03/29 09:16:46;;;;;;;19.45;8.07;;;;;;;10.25;nan;101110.16;5044035;28;20025;-54
2022/03/29 09:19:12;;;;;;;17.63;7.78;;;;;;;10.34;nan;101102.53;5048375;28;20104;-51
2022/03/29 09:21:42;;;;;;;15.30;7.13;;;;;;;10.49;nan;101097.50;5049603;28;20016;-50
2022/03/29 09:24:14;;;;;;;17.55;7.25;;;;;;;10.67;nan;101096.47;5042971;28;20036;-53
2022/03/29 09:26:45;;;;;;;15.35;7.13;;;;;;;10.78;nan;101105.53;5041470;28;20017;-49
2022/03/29 09:29:19;;;;;;;14.98;5.78;;;;;;;10.79;nan;101091.88;5050427;28;20081;-50
2022/03/29 09:31:46;;;;;;;14.88;5.93;;;;;;;10.75;nan;101100.63;5042636;28;20034;-52
2022/03/29 09:34:20;;;;;;;17.65;7.05;;;;;;;10.88;nan;101094.97;5050822;28;20509;-48
2022/03/29 09:36:51;;;;;;;17.67;6.18;;;;;;;11.06;nan;101081.34;5042356;28;20252;-53
2022/03/29 09:39:39;;;;;;;15.25;6.50;;;;;;;11.17;nan;101091.19;5045635;28;20030;-52
2022/03/29 09:42:13;;;;;;;11.18;5.60;;;;;;;11.20;nan;101087.22;5041504;28;20036;-50
2022/03/29 09:44:50;;;;;;;12.38;6.25;;;;;;;11.25;nan;101091.84;5041600;28;20021;-54
2022/03/29 09:47:20;;;;;;;14.75;6.05;;;;;;;11.36;nan;101077.53;5050272;28;20387;-48
2022/03/29 09:49:52;;;;;;;16.42;6.28;;;;;;;11.50;nan;101078.84;5039939;28;20024;-53
2022/03/29 09:52:20;;;;;;;13.85;6.03;;;;;;;11.73;nan;101075.13;5048409;28;20029;-49
2022/03/29 09:55:12;;;;;;;12.77;5.65;;;;;;;11.91;nan;101069.50;5042326;28;20029;-52
2022/03/29 09:57:43;;;;;;;14.80;6.30;;;;;;;11.99;nan;101073.63;5032867;28;20509;-50
2022/03/29 10:00:12;;;;;;;12.63;6.18;;;;;;;11.88;nan;101075.38;5039977;28;20025;-51
2022/03/29 10:02:40;;;;;;;13.43;5.65;;;;;;;11.96;nan;101063.38;5046772;28;20048;-50
2022/03/29 10:05:09;;;;;;;14.77;5.65;;;;;;;12.08;nan;101066.75;5044511;28;21064;-48
2022/03/29 10:07:42;;;;;;;11.77;4.90;;;;;;;12.04;nan;101065.66;5047715;28;20402;-52
2022/03/29 10:10:07;;;;;;;9.18;4.95;;;;;;;11.96;nan;101068.75;5049490;28;20017;-52
2022/03/29 10:12:34;;;;;;;14.45;6.03;;;;;;;11.89;nan;101060.06;5046842;28;20051;-51
2022/03/29 10:15:00;;;;;;;17.17;5.70;;;;;;;11.92;nan;101062.25;5041164;28;20025;-51
2022/03/29 10:17:26;;;;;;;14.32;4.82;;;;;;;12.04;nan;101065.66;5045682;28;20031;-51
2022/03/29 10:19:54;;;;;;;13.57;5.45;;;;;;;12.17;nan;101065.25;5046208;28;20013;-51
2022/03/29 10:22:20;;;;;;;12.80;4.85;;;;;;;12.26;nan;101063.75;5043770;28;20017;-50
2022/03/29 10:24:45;;;;;;;15.10;5.65;;;;;;;12.36;nan;101063.84;5041687;28;20435;-51
2022/03/29 10:27:11;;;;;;;11.52;5.32;;;;;;;12.42;nan;101063.94;5049097;28;20024;-52
2022/03/29 10:29:40;;;;;;;14.23;4.93;;;;;;;12.43;nan;101058.28;5046472;28;20060;-52
2022/03/29 10:32:06;;;;;;;11.50;4.95;;;;;;;12.49;nan;101051.09;5045102;28;21227;-51
2022/03/29 10:34:39;;;;;;;11.02;5.00;;;;;;;12.60;nan;101059.00;5051691;28;20501;-50
2022/03/29 10:37:21;;;;;;;11.90;5.30;;;;;;;12.54;nan;101057.31;5037965;28;20179;-49
2022/03/29 10:39:48;;;;;;;15.05;4.68;;;;;;;12.56;nan;101051.69;5045217;28;20021;-53
2022/03/29 10:42:38;;;;;;;11.52;4.78;;;;;;;12.50;nan;101041.97;5049347;28;20429;-52
2022/03/29 10:45:23;;;;;;;11.85;4.00;;;;;;;12.53;nan;101038.75;5048177;28;20040;-50
2022/03/29 10:48:02;;;;;;;9.18;3.72;;;;;;;12.59;nan;101045.84;5046432;28;20029;-50
2022/03/29 10:50:46;;;;;;;13.20;3.97;;;;;;;12.47;nan;101037.91;5040330;28;20033;-50
2022/03/29 10:53:26;;;;;;;9.15;4.13;;;;;;;12.45;nan;101036.53;5044619;28;20069;-53
2022/03/29 10:56:16;;;;;;;10.50;4.28;;;;;;;12.33;nan;101042.88;5046145;28;20021;-51
2022/03/29 10:59:04;;;;;;;10.43;3.97;;;;;;;12.19;nan;101041.63;5041716;28;20086;-53
2022/03/29 11:01:32;;;;;;;11.30;4.50;;;;;;;12.25;nan;101034.47;5044055;28;20048;-51
2022/03/29 11:04:16;;;;;;;11.27;3.72;;;;;;;12.10;nan;101035.91;5047470;28;20179;-49
2022/03/29 11:07:06;;;;;;;9.63;3.47;;;;;;;12.01;nan;101029.34;5042916;28;20633;-53
2022/03/29 11:09:36;;;;;;;11.25;3.50;;;;;;;11.97;nan;101032.78;5045046;28;20039;-49
2022/03/29 11:12:03;;;;;;;12.32;4.10;;;;;;;12.00;nan;101037.63;5047196;28;20033;-50
2022/03/29 11:14:39;;;;;;;9.13;4.03;;;;;;;11.99;nan;101027.97;5041690;28;21394;-51
2022/03/29 11:17:04;;;;;;;12.02;3.38;;;;;;;11.97;nan;101032.78;5044361;28;20033;-52
2022/03/29 11:19:49;;;;;;;8.90;3.50;;;;;;;11.87;nan;101021.94;5047605;28;20032;-49
2022/03/29 11:22:24;;;;;;;14.60;3.73;;;;;;;11.88;nan;101020.88;5044244;28;20021;-50
2022/03/29 11:24:52;;;;;;;9.55;3.40;;;;;;;11.87;nan;101013.88;5039824;28;20312;-48
2022/03/29 11:27:37;;;;;;;11.45;4.05;;;;;;;11.71;nan;101010.16;5043825;28;20040;-48
2022/03/29 11:30:11;;;;;;;8.40;3.47;;;;;;;11.78;nan;101008.91;5043262;28;20078;-51
2022/03/29 11:32:42;;;;;;;8.45;3.13;;;;;;;11.99;nan;101004.59;5045346;28;20483;-48
2022/03/29 11:35:08;;;;;;;9.07;3.47;;;;;;;12.08;nan;101002.31;5045456;28;20021;-48
2022/03/29 11:37:39;;;;;;;7.30;2.80;;;;;;;12.12;nan;100994.53;5049024;28;20032;-50
2022/03/29 11:40:08;;;;;;;10.40;2.80;;;;;;;12.09;nan;100999.34;5049179;28;20024;-53
2022/03/29 11:42:49;;;;;;;11.82;3.53;;;;;;;12.02;nan;100995.22;5046714;28;20077;-50
2022/03/29 11:45:16;;;;;;;7.88;2.53;;;;;;;12.04;nan;100998.50;5047523;28;20112;-50
2022/03/29 11:47:56;;;;;;;9.48;2.63;;;;;;;12.20;nan;100989.53;5050172;28;20359;-50